createdAt,value
2024-02-03T00:02:23.887Z,59.56
2024-02-03T00:04:52.237Z,61.80
2024-02-03T00:07:20.805Z,64.70
2024-02-03T00:09:49.357Z,64.79
2024-02-03T00:12:21.048Z,63.39
2024-02-03T00:14:49.514Z,62.71
2024-02-03T00:17:17.678Z,62.41
2024-02-03T00:19:46.167Z,60.74
2024-02-03T00:22:15.327Z,59.23
2024-02-03T00:24:43.796Z,59.19
2024-02-03T00:27:12.041Z,61.13
2024-02-03T00:29:40.157Z,64.17
2024-02-03T00:32:08.453Z,65.07
2024-02-03T00:34:36.923Z,63.79
2024-02-03T00:37:05.625Z,62.50
2024-02-03T00:39:33.796Z,62.14
2024-02-03T00:42:02.010Z,61.81
2024-02-03T00:44:30.219Z,61.08
2024-02-03T00:46:58.438Z,60.81
2024-02-03T00:49:26.753Z,60.98
2024-02-03T00:51:55.970Z,60.76
2024-02-03T00:54:24.554Z,60.68
2024-02-03T00:56:52.716Z,60.71
2024-02-03T00:59:21.187Z,60.59
2024-02-03T01:01:49.432Z,60.49
2024-02-03T01:04:18.196Z,60.28
2024-02-03T01:06:46.518Z,60.21
2024-02-03T01:09:19.044Z,60.10
2024-02-03T01:11:47.485Z,60.16
2024-02-03T01:14:15.594Z,60.35
2024-02-03T01:16:45.575Z,60.54
2024-02-03T01:19:13.862Z,60.40
2024-02-03T01:21:42.665Z,59.93
2024-02-03T01:24:10.964Z,58.30
2024-02-03T01:26:39.128Z,59.42
2024-02-03T01:29:07.474Z,61.95
2024-02-03T01:31:35.654Z,64.59
2024-02-03T01:34:04.074Z,65.23
2024-02-03T01:36:32.619Z,62.71
2024-02-03T01:39:00.885Z,62.31
2024-02-03T01:41:29.149Z,60.70
2024-02-03T01:43:57.628Z,60.31
2024-02-03T01:46:26.008Z,58.69
2024-02-03T01:48:54.595Z,59.40
2024-02-03T01:51:24.826Z,62.53
2024-02-03T01:53:54.349Z,66.03
2024-02-03T01:56:23.308Z,63.34
2024-02-03T01:58:51.492Z,62.52
2024-02-03T02:01:20.002Z,60.41
2024-02-03T02:03:48.345Z,56.43
2024-02-03T02:06:16.603Z,56.80
2024-02-03T02:08:44.906Z,58.58
2024-02-03T02:11:13.806Z,61.69
2024-02-03T02:13:41.965Z,65.76
2024-02-03T02:16:10.233Z,63.85
2024-02-03T02:18:38.852Z,61.62
2024-02-03T02:21:07.118Z,60.90
2024-02-03T02:23:35.477Z,57.93
2024-02-03T02:26:04.362Z,58.30
2024-02-03T02:28:33.576Z,61.72
2024-02-03T02:31:01.739Z,65.03
2024-02-03T02:33:30.049Z,61.53
2024-02-03T02:35:58.211Z,59.37
2024-02-03T02:38:26.465Z,59.37
2024-02-03T02:40:54.698Z,60.83
2024-02-03T02:43:23.421Z,64.15
2024-02-03T02:45:51.670Z,65.68
2024-02-03T02:48:20.293Z,64.67
2024-02-03T02:50:48.769Z,63.68
2024-02-03T02:53:16.828Z,63.07
2024-02-03T02:55:45.422Z,62.58
2024-02-03T02:58:13.606Z,62.68
2024-02-03T03:00:41.984Z,62.80
2024-02-03T03:03:10.198Z,62.55
2024-02-03T03:05:38.515Z,62.09
2024-02-03T03:08:06.689Z,62.05
2024-02-03T03:10:34.964Z,62.20
2024-02-03T03:13:03.475Z,62.19
2024-02-03T03:15:31.631Z,62.30
2024-02-03T03:18:00.107Z,62.21
2024-02-03T03:20:28.494Z,62.65
2024-02-03T03:22:56.903Z,62.56
2024-02-03T03:25:25.047Z,62.43
2024-02-03T03:27:53.316Z,62.64
2024-02-03T03:30:21.515Z,62.72
2024-02-03T03:32:52.188Z,62.90
2024-02-03T03:35:21.161Z,62.84
2024-02-03T03:37:49.314Z,62.92
2024-02-03T03:40:17.450Z,62.69
2024-02-03T03:42:49.344Z,62.58
2024-02-03T03:45:20.806Z,62.50
2024-02-03T03:47:49.093Z,62.84
2024-02-03T03:50:17.320Z,62.55
2024-02-03T03:52:45.687Z,63.00
2024-02-03T03:55:13.912Z,63.11
2024-02-03T03:57:42.341Z,62.47
2024-02-03T04:00:12.509Z,62.55
2024-02-03T04:02:41.151Z,62.78
2024-02-03T04:05:09.938Z,62.55
2024-02-03T04:07:38.119Z,63.11
2024-02-03T04:10:06.832Z,63.01
2024-02-03T04:12:35.093Z,63.49
2024-02-03T04:15:03.494Z,63.77
2024-02-03T04:17:31.838Z,63.57
2024-02-03T04:20:00.144Z,63.17
2024-02-03T04:22:28.685Z,63.78
2024-02-03T04:24:57.208Z,64.05
2024-02-03T04:27:25.679Z,63.51
2024-02-03T04:29:53.835Z,63.71
2024-02-03T04:32:22.118Z,64.29
2024-02-03T04:34:50.203Z,65.12
2024-02-03T04:37:18.801Z,63.45
2024-02-03T04:39:47.062Z,63.36
2024-02-03T04:42:15.789Z,62.81
2024-02-03T04:44:43.983Z,62.06
2024-02-03T04:47:12.432Z,62.42
2024-02-03T04:49:40.726Z,62.19
2024-02-03T04:52:09.226Z,61.44
2024-02-03T04:54:37.603Z,61.73
2024-02-03T04:57:06.396Z,60.29
2024-02-03T04:59:34.434Z,60.10
2024-02-03T05:02:02.572Z,58.73
2024-02-03T05:04:30.824Z,60.58
2024-02-03T05:06:59.153Z,63.89
2024-02-03T05:09:27.700Z,63.76
2024-02-03T05:11:56.175Z,62.41
2024-02-03T05:14:24.323Z,61.53
2024-02-03T05:16:52.710Z,60.69
2024-02-03T05:19:20.948Z,60.42
2024-02-03T05:21:49.286Z,60.16
2024-02-03T05:24:17.716Z,58.29
2024-02-03T05:26:46.023Z,59.55
2024-02-03T05:29:14.330Z,62.91
2024-02-03T05:31:42.453Z,64.55
2024-02-03T05:34:10.670Z,61.20
2024-02-03T05:36:38.963Z,61.11
2024-02-03T05:39:08.314Z,60.34
2024-02-03T05:41:36.554Z,60.23
2024-02-03T05:44:05.017Z,58.32
2024-02-03T05:46:33.240Z,58.41
2024-02-03T05:49:01.464Z,60.48
2024-02-03T05:51:29.930Z,65.29
2024-02-03T05:54:01.060Z,64.88
2024-02-03T05:56:29.303Z,61.54
2024-02-03T05:59:13.697Z,59.32
2024-02-03T06:01:45.991Z,59.22
2024-02-03T06:04:14.086Z,61.54
2024-02-03T06:06:42.395Z,66.25
2024-02-03T06:09:10.597Z,66.11
2024-02-03T06:11:38.627Z,62.48
2024-02-03T06:14:06.739Z,60.49
2024-02-03T06:16:34.984Z,59.19
2024-02-03T06:19:03.672Z,59.81
2024-02-03T06:21:32.092Z,63.24
2024-02-03T06:24:00.337Z,67.14
2024-02-03T06:26:32.871Z,64.53
2024-02-03T06:29:01.163Z,61.50
2024-02-03T06:31:29.386Z,60.34
2024-02-03T06:33:57.803Z,60.28
2024-02-03T06:36:26.032Z,58.26
2024-02-03T06:38:54.370Z,59.16
2024-02-03T06:41:23.161Z,62.29
2024-02-03T06:43:52.277Z,64.91
2024-02-03T06:46:20.543Z,64.50
2024-02-03T06:48:48.834Z,62.91
2024-02-03T06:51:17.188Z,61.24
2024-02-03T06:53:45.476Z,60.19
2024-02-03T06:56:13.746Z,58.96
2024-02-03T06:58:42.056Z,60.75
2024-02-03T07:01:10.231Z,63.64
2024-02-03T07:03:38.808Z,63.79
2024-02-03T07:06:08.011Z,61.61
2024-02-03T07:08:36.172Z,60.16
2024-02-03T07:11:04.535Z,59.52
2024-02-03T07:13:32.825Z,58.29
2024-02-03T07:16:01.200Z,59.40
2024-02-03T07:18:29.488Z,62.08
2024-02-03T07:20:58.239Z,65.12
2024-02-03T07:23:26.511Z,63.19
2024-02-03T07:25:54.698Z,61.67
2024-02-03T07:28:22.859Z,60.24
2024-02-03T07:30:51.060Z,58.65
2024-02-03T07:33:19.526Z,59.31
2024-02-03T07:35:47.835Z,61.27
2024-02-03T07:38:16.111Z,65.00
2024-02-03T07:40:44.245Z,64.44
2024-02-03T07:43:12.207Z,61.54
2024-02-03T07:45:40.163Z,60.34
2024-02-03T07:48:08.554Z,58.12
2024-02-03T07:50:36.616Z,57.96
2024-02-03T07:53:04.641Z,61.38
2024-02-03T07:55:32.583Z,65.29
2024-02-03T07:58:00.566Z,64.74
2024-02-03T08:00:28.953Z,61.35
2024-02-03T08:02:57.084Z,58.52
2024-02-03T08:05:25.599Z,59.12
2024-02-03T08:07:54.656Z,61.26
2024-02-03T08:10:24.178Z,65.47
2024-02-03T08:12:52.261Z,63.82
2024-02-03T08:15:21.044Z,60.84
2024-02-03T08:17:49.238Z,57.82
2024-02-03T08:20:17.536Z,58.24
2024-02-03T08:22:45.771Z,60.83
2024-02-03T08:25:14.041Z,64.31
2024-02-03T08:27:42.242Z,63.22
2024-02-03T08:30:11.590Z,60.83
2024-02-03T08:32:39.812Z,58.11
2024-02-03T08:37:39.727Z,60.37
2024-02-03T08:40:08.600Z,64.75
2024-02-03T08:42:36.789Z,64.79
2024-02-03T08:45:05.584Z,61.11
2024-02-03T08:47:33.661Z,58.30
2024-02-03T08:50:02.623Z,58.70
2024-02-03T08:52:30.715Z,61.68
2024-02-03T08:55:00.136Z,65.17
2024-02-03T08:57:28.647Z,64.11
2024-02-03T08:59:57.061Z,61.70
2024-02-03T09:02:25.346Z,61.23
2024-02-03T09:04:54.109Z,59.11
2024-02-03T09:07:22.229Z,57.85
2024-02-03T09:09:50.470Z,60.95
2024-02-03T09:12:18.921Z,64.30
2024-02-03T09:14:47.438Z,64.07
2024-02-03T09:17:15.536Z,62.11
2024-02-03T09:19:43.918Z,60.91
2024-02-03T09:22:12.154Z,59.75
2024-02-03T09:24:41.019Z,58.32
2024-02-03T09:27:09.322Z,58.74
2024-02-03T09:29:44.222Z,62.44
2024-02-03T09:32:12.321Z,64.90
2024-02-03T09:34:47.360Z,63.48
2024-02-03T09:39:47.299Z,59.99
2024-02-03T09:42:16.771Z,58.70
2024-02-03T09:44:46.197Z,59.76
2024-02-03T09:47:17.742Z,61.57
2024-02-03T09:49:46.350Z,65.04
2024-02-03T09:52:16.468Z,64.10
2024-02-03T09:54:48.948Z,61.70
2024-02-03T09:57:17.559Z,60.27
2024-02-03T09:59:52.104Z,58.15
2024-02-03T10:02:20.611Z,59.27
2024-02-03T10:04:49.352Z,62.23
2024-02-03T10:07:20.881Z,63.47
2024-02-03T10:12:22.911Z,58.98
2024-02-03T10:15:02.148Z,58.41
2024-02-03T10:17:30.255Z,58.98
2024-02-03T10:19:59.494Z,61.97
2024-02-03T10:22:28.323Z,64.37
2024-02-03T10:25:07.637Z,61.47
2024-02-03T10:27:35.861Z,60.12
2024-02-03T10:30:04.337Z,57.69
2024-02-03T10:32:32.657Z,58.01
2024-02-03T10:35:02.361Z,60.45
2024-02-03T10:37:30.694Z,63.28
2024-02-03T10:39:59.453Z,62.67
2024-02-03T10:42:32.331Z,59.88
2024-02-03T10:45:03.345Z,57.48
2024-02-03T10:47:33.623Z,57.90
2024-02-03T10:50:05.611Z,59.62
2024-02-03T10:52:34.775Z,61.95
2024-02-03T10:55:04.863Z,64.82
2024-02-03T10:57:33.257Z,63.57
2024-02-03T11:00:06.229Z,61.62
2024-02-03T11:02:35.676Z,60.49
2024-02-03T11:05:03.990Z,58.11
2024-02-03T11:07:32.859Z,59.55
2024-02-03T11:10:05.599Z,61.12
2024-02-03T11:12:38.332Z,63.76
2024-02-03T11:15:16.210Z,63.58
2024-02-03T11:17:45.750Z,61.30
2024-02-03T11:20:21.626Z,60.11
2024-02-03T11:22:54.287Z,58.11
2024-02-03T11:25:22.399Z,59.08
2024-02-03T11:27:52.980Z,61.13
2024-02-03T11:30:21.235Z,63.68
2024-02-03T11:32:49.485Z,63.43
2024-02-03T11:35:19.038Z,61.87
2024-02-03T11:37:47.565Z,60.99
2024-02-03T11:40:16.193Z,59.86
2024-02-03T11:42:45.094Z,58.82
2024-02-03T11:45:16.428Z,59.61
2024-02-03T11:47:45.042Z,61.42
2024-02-03T11:50:13.066Z,64.56
2024-02-03T11:52:47.744Z,64.30
2024-02-03T11:55:16.045Z,61.87
2024-02-03T11:57:44.289Z,60.99
2024-02-03T12:00:14.643Z,59.95
2024-02-03T12:02:43.134Z,58.60
2024-02-03T12:05:14.561Z,59.42
2024-02-03T12:07:43.855Z,60.71
2024-02-03T12:10:14.301Z,63.44
2024-02-03T12:12:42.532Z,63.92
2024-02-03T12:15:12.265Z,61.91
2024-02-03T12:17:41.537Z,58.88
2024-02-03T12:20:26.087Z,58.90
2024-02-03T12:22:54.514Z,61.48
2024-02-03T12:25:23.907Z,63.03
2024-02-03T12:27:53.647Z,62.23
2024-02-03T12:30:23.973Z,60.61
2024-02-03T12:32:52.492Z,59.63
2024-02-03T12:35:20.706Z,58.66
2024-02-03T12:37:48.862Z,58.15
2024-02-03T12:40:16.910Z,60.89
2024-02-03T12:42:45.123Z,63.60
2024-02-03T12:45:13.786Z,63.81
2024-02-03T12:47:45.799Z,62.64
2024-02-03T12:50:14.145Z,61.62
2024-02-03T12:52:43.288Z,59.83
2024-02-03T12:55:11.627Z,59.90
2024-02-03T12:57:39.935Z,58.22
2024-02-03T13:00:09.065Z,58.40
2024-02-03T13:02:37.683Z,59.95
2024-02-03T13:05:06.265Z,61.99
2024-02-03T13:07:34.544Z,64.91
2024-02-03T13:10:02.716Z,63.50
2024-02-03T13:12:31.733Z,61.94
2024-02-03T13:15:00.124Z,60.86
2024-02-03T13:17:30.386Z,59.10
2024-02-03T13:19:59.509Z,58.87
2024-02-03T13:22:27.840Z,61.35
2024-02-03T13:24:56.091Z,63.14
2024-02-03T13:27:24.531Z,62.74
2024-02-03T13:29:53.417Z,61.16
2024-02-03T13:32:22.023Z,58.34
2024-02-03T13:34:50.951Z,58.39
2024-02-03T13:37:19.561Z,61.10
2024-02-03T13:39:47.991Z,63.06
2024-02-03T13:42:17.553Z,63.10
2024-02-03T13:44:45.953Z,60.66
2024-02-03T13:47:14.025Z,58.17
2024-02-03T13:49:42.321Z,58.30
2024-02-03T13:52:13.985Z,60.40
2024-02-03T13:54:42.465Z,61.72
2024-02-03T13:57:10.647Z,64.29
2024-02-03T13:59:38.943Z,63.86
2024-02-03T14:02:07.565Z,61.07
2024-02-03T14:04:35.992Z,58.38
2024-02-03T14:07:05.352Z,58.24
2024-02-03T14:09:33.586Z,59.90
2024-02-03T14:12:04.894Z,61.31
2024-02-03T14:14:33.185Z,64.08
2024-02-03T14:17:01.429Z,64.04
2024-02-03T14:19:29.731Z,61.04
2024-02-03T14:21:58.315Z,59.06
2024-02-03T14:24:26.930Z,58.72
2024-02-03T14:26:55.306Z,60.21
2024-02-03T14:29:23.529Z,61.15
2024-02-03T14:31:51.588Z,63.60
2024-02-03T14:34:19.816Z,63.45
2024-02-03T14:36:48.609Z,62.01
2024-02-03T14:39:20.338Z,60.31
2024-02-03T14:41:48.988Z,58.89
2024-02-03T14:44:18.062Z,59.45
2024-02-03T14:46:46.570Z,61.48
2024-02-03T14:49:15.089Z,64.12
2024-02-03T14:51:43.940Z,64.04
2024-02-03T14:54:13.316Z,62.68
2024-02-03T14:56:42.056Z,61.51
2024-02-03T14:59:10.201Z,60.83
2024-02-03T15:01:38.482Z,60.26
2024-02-03T15:04:08.945Z,60.51
2024-02-03T15:06:37.931Z,61.52
2024-02-03T15:09:09.289Z,63.57
2024-02-03T15:11:37.654Z,63.20
2024-02-03T15:14:06.202Z,62.66
2024-02-03T15:16:34.393Z,62.95
2024-02-03T15:19:02.600Z,62.77
2024-02-03T15:21:31.379Z,62.61
2024-02-03T15:23:59.682Z,62.24
2024-02-03T15:26:28.100Z,62.21
2024-02-03T15:28:56.702Z,61.79
2024-02-03T15:31:27.039Z,61.33
2024-02-03T15:33:55.683Z,61.42
2024-02-03T15:36:24.264Z,60.73
2024-02-03T15:38:52.549Z,59.77
2024-02-03T15:41:20.882Z,59.93
2024-02-03T15:43:49.047Z,59.70
2024-02-03T15:46:18.111Z,59.77
2024-02-03T15:48:46.539Z,58.83
2024-02-03T15:51:14.830Z,58.72
2024-02-03T15:53:43.170Z,60.54
2024-02-03T15:56:11.717Z,63.47
2024-02-03T15:58:40.462Z,64.41
2024-02-03T16:01:08.756Z,63.16
2024-02-03T16:03:37.477Z,62.05
2024-02-03T16:06:06.338Z,61.05
2024-02-03T16:08:34.557Z,60.56
2024-02-03T16:11:03.216Z,59.68
2024-02-03T16:13:31.397Z,57.40
2024-02-03T16:16:00.259Z,57.26
2024-02-03T16:18:28.993Z,59.50
2024-02-03T16:20:57.144Z,60.18
2024-02-03T16:23:25.356Z,60.78
2024-02-03T16:25:53.621Z,62.75
2024-02-03T16:28:21.800Z,61.56
2024-02-03T16:30:49.971Z,61.34
2024-02-03T16:33:18.404Z,55.63
2024-02-03T16:35:46.713Z,57.47
2024-02-03T16:38:15.119Z,58.57
2024-02-03T16:40:43.396Z,58.95
2024-02-03T16:43:11.827Z,59.88
2024-02-03T16:45:40.531Z,61.84
2024-02-03T16:48:09.006Z,61.69
2024-02-03T16:50:37.187Z,61.29
2024-02-03T16:53:05.457Z,58.53
2024-02-03T16:55:36.081Z,57.38
2024-02-03T16:58:04.570Z,58.15
2024-02-03T17:00:38.614Z,60.71
2024-02-03T17:03:10.248Z,62.55
2024-02-03T17:05:41.899Z,62.96
2024-02-03T17:08:12.986Z,62.49
2024-02-03T17:10:41.448Z,60.78
2024-02-03T17:13:09.951Z,60.28
2024-02-03T17:15:38.456Z,59.16
2024-02-03T17:18:07.150Z,58.57
2024-02-03T17:20:35.305Z,60.81
2024-02-03T17:23:03.598Z,61.81
2024-02-03T17:25:34.762Z,63.68
2024-02-03T17:28:03.256Z,63.58
2024-02-03T17:30:31.768Z,62.42
2024-02-03T17:33:00.117Z,61.30
2024-02-03T17:35:28.661Z,60.62
2024-02-03T17:37:56.934Z,59.04
2024-02-03T17:40:25.127Z,58.68
2024-02-03T17:42:53.400Z,59.91
2024-02-03T17:45:24.571Z,61.46
2024-02-03T17:47:53.462Z,63.63
2024-02-03T17:50:21.686Z,64.34
2024-02-03T17:52:49.985Z,63.35
2024-02-03T17:55:18.446Z,62.15
2024-02-03T17:57:47.297Z,61.67
2024-02-03T18:00:16.399Z,60.87
2024-02-03T18:02:44.731Z,60.25
2024-02-03T18:05:13.226Z,59.09
2024-02-03T18:07:41.399Z,58.32
2024-02-03T18:10:10.392Z,60.52
2024-02-03T18:12:38.673Z,61.97
2024-02-03T18:15:08.138Z,64.05
2024-02-03T18:17:36.661Z,65.01
2024-02-03T18:20:05.430Z,64.15
2024-02-03T18:22:33.790Z,62.63
2024-02-03T18:25:02.662Z,61.98
2024-02-03T18:27:30.964Z,61.08
2024-02-03T18:29:59.129Z,60.57
2024-02-03T18:32:27.716Z,60.18
2024-02-03T18:34:55.878Z,60.00
2024-02-03T18:37:24.155Z,58.91
2024-02-03T18:39:54.037Z,58.46
2024-02-03T18:42:24.712Z,60.56
2024-02-03T18:44:53.080Z,62.30
2024-02-03T18:47:21.492Z,63.51
2024-02-03T18:49:49.786Z,62.42
2024-02-03T18:52:18.116Z,60.22
2024-02-03T18:54:46.526Z,58.16
2024-02-03T18:57:15.080Z,58.27
2024-02-03T18:59:43.146Z,60.65
2024-02-03T19:02:11.215Z,60.90
2024-02-03T19:04:39.369Z,63.34
2024-02-03T19:07:07.559Z,63.84
2024-02-03T19:09:38.010Z,62.49
2024-02-03T19:12:09.426Z,62.10
2024-02-03T19:14:38.862Z,61.09
2024-02-03T19:17:07.125Z,60.44
2024-02-03T19:19:37.463Z,59.07
2024-02-03T19:22:05.844Z,59.06
2024-02-03T19:24:34.256Z,59.99
2024-02-03T19:27:02.582Z,61.63
2024-02-03T19:29:30.785Z,63.19
2024-02-03T19:31:58.920Z,63.98
2024-02-03T19:34:28.300Z,62.54
2024-02-03T19:36:57.673Z,61.29
2024-02-03T19:39:26.854Z,59.67
2024-02-03T19:41:54.990Z,58.19
2024-02-03T19:44:23.078Z,58.45
2024-02-03T19:46:51.437Z,59.55
2024-02-03T19:49:20.658Z,60.96
2024-02-03T19:51:49.419Z,62.47
2024-02-03T19:54:18.248Z,63.36
2024-02-03T19:56:46.697Z,62.43
2024-02-03T19:59:14.969Z,60.01
2024-02-03T20:01:43.445Z,58.97
2024-02-03T20:04:12.022Z,59.57
2024-02-03T20:06:40.402Z,61.51
2024-02-03T20:09:10.335Z,63.12
2024-02-03T20:11:38.697Z,63.60
2024-02-03T20:14:06.793Z,62.13
2024-02-03T20:16:35.103Z,61.33
2024-02-03T20:19:03.497Z,59.64
2024-02-03T20:21:31.876Z,58.14
2024-02-03T20:24:00.190Z,59.10
2024-02-03T20:26:28.342Z,60.36
2024-02-03T20:28:56.780Z,61.39
2024-02-03T20:31:25.241Z,62.88
2024-02-03T20:33:53.911Z,63.52
2024-02-03T20:36:22.691Z,61.76
2024-02-03T20:38:50.973Z,60.82
2024-02-03T20:41:25.825Z,60.16
2024-02-03T20:43:54.060Z,58.28
2024-02-03T20:46:22.365Z,58.42
2024-02-03T20:48:51.007Z,60.27
2024-02-03T20:51:19.637Z,61.93
2024-02-03T20:53:48.026Z,63.52
2024-02-03T20:56:20.391Z,63.84
2024-02-03T20:58:48.833Z,63.15
2024-02-03T21:01:17.581Z,62.04
2024-02-03T21:03:46.413Z,60.82
2024-02-03T21:06:16.785Z,59.77
2024-02-03T21:08:45.436Z,58.11
2024-02-03T21:11:13.867Z,59.19
2024-02-03T21:13:42.108Z,60.75
2024-02-03T21:16:10.522Z,62.97
2024-02-03T21:18:38.892Z,63.88
2024-02-03T21:21:07.303Z,63.62
2024-02-03T21:23:35.654Z,62.11
2024-02-03T21:26:03.795Z,61.37
2024-02-03T21:28:31.945Z,60.68
2024-02-03T21:31:00.339Z,60.57
2024-02-03T21:33:29.155Z,60.36
2024-02-03T21:35:57.570Z,59.67
2024-02-03T21:38:25.918Z,59.63
2024-02-03T21:40:54.152Z,58.76
2024-02-03T21:43:22.346Z,59.25
2024-02-03T21:45:50.416Z,60.18
2024-02-03T21:48:19.071Z,62.73
2024-02-03T21:50:47.473Z,63.97
2024-02-03T21:53:15.551Z,63.00
2024-02-03T21:55:43.612Z,62.39
2024-02-03T21:58:11.834Z,61.53
2024-02-03T22:00:42.255Z,61.02
2024-02-03T22:03:10.346Z,60.74
2024-02-03T22:05:38.672Z,60.25
2024-02-03T22:08:07.862Z,60.00
2024-02-03T22:10:35.918Z,59.38
2024-02-03T22:13:04.259Z,58.83
2024-02-03T22:15:32.460Z,59.38
2024-02-03T22:18:01.218Z,60.92
2024-02-03T22:20:29.176Z,63.44
2024-02-03T22:22:57.203Z,64.66
2024-02-03T22:25:25.471Z,63.64
2024-02-03T22:27:53.708Z,62.95
2024-02-03T22:30:22.919Z,62.19
2024-02-03T22:32:51.203Z,61.85
2024-02-03T22:35:19.803Z,61.75
2024-02-03T22:37:48.287Z,60.93
2024-02-03T22:40:16.791Z,60.73
2024-02-03T22:42:46.420Z,60.66
2024-02-03T22:45:14.638Z,60.03
2024-02-03T22:47:42.892Z,60.31
2024-02-03T22:50:11.822Z,60.09
2024-02-03T22:52:42.027Z,59.74
2024-02-03T22:55:10.576Z,59.52
2024-02-03T22:57:39.017Z,58.93
2024-02-03T23:00:17.601Z,59.00
2024-02-03T23:02:45.885Z,60.08
2024-02-03T23:05:16.953Z,62.26
2024-02-03T23:07:45.106Z,64.43
2024-02-03T23:10:13.486Z,64.54
2024-02-03T23:12:43.782Z,63.60
2024-02-03T23:15:11.974Z,62.82
2024-02-03T23:17:44.977Z,62.58
2024-02-03T23:20:17.540Z,61.89
2024-02-03T23:22:46.203Z,61.49
2024-02-03T23:25:14.465Z,60.91
2024-02-03T23:27:43.449Z,60.71
2024-02-03T23:30:12.813Z,60.00
2024-02-03T23:32:41.677Z,59.37
2024-02-03T23:35:10.379Z,58.00
2024-02-03T23:37:38.790Z,59.16
2024-02-03T23:40:08.354Z,60.51
2024-02-03T23:42:36.553Z,61.57
2024-02-03T23:45:05.625Z,63.40
2024-02-03T23:47:33.825Z,64.14
2024-02-03T23:50:02.384Z,62.87
2024-02-03T23:52:30.867Z,61.28
2024-02-03T23:54:59.103Z,60.83
2024-02-03T23:57:27.447Z,59.08
2024-02-03T23:59:56.732Z,58.42
